createdAt,value
2017-12-17T00:00:57.728Z,101432.78
2017-12-17T00:03:00.824Z,101446.79
2017-12-17T00:05:03.916Z,101436.91
2017-12-17T00:07:07.048Z,101450.84
2017-12-17T00:09:10.048Z,101448.14
2017-12-17T00:11:13.222Z,101454.89
2017-12-17T00:13:16.252Z,101454.39
2017-12-17T00:15:19.287Z,101451.77
2017-12-17T00:17:22.407Z,101449.49
2017-12-17T00:19:25.518Z,101455.82
2017-12-17T00:21:28.669Z,101457.59
2017-12-17T00:23:31.720Z,101461.14
2017-12-17T00:25:34.744Z,101467.47
2017-12-17T00:27:37.996Z,101468.82
2017-12-17T00:29:41.081Z,101469.75
2017-12-17T00:31:44.134Z,101472.02
2017-12-17T00:33:47.235Z,101471.52
2017-12-17T00:35:50.269Z,101471.60
2017-12-17T00:37:53.320Z,101471.60
2017-12-17T00:39:56.479Z,101470.25
2017-12-17T00:41:59.692Z,101471.52
2017-12-17T00:44:02.777Z,101468.82
2017-12-17T00:46:05.865Z,101466.63
2017-12-17T00:48:08.902Z,101470.67
2017-12-17T00:50:11.989Z,101477.84
2017-12-17T00:52:15.103Z,101474.72
2017-12-17T00:54:18.173Z,101474.30
2017-12-17T00:56:21.282Z,101477.42
2017-12-17T00:58:24.367Z,101476.08
2017-12-17T01:00:27.456Z,101477.42
2017-12-17T01:02:30.606Z,101483.75
2017-12-17T01:04:33.657Z,101481.05
2017-12-17T01:06:36.722Z,101487.80
2017-12-17T01:08:39.842Z,101492.28
2017-12-17T01:10:42.909Z,101491.86
2017-12-17T01:12:46.103Z,101486.45
2017-12-17T01:14:49.169Z,101484.17
2017-12-17T01:16:52.291Z,101489.16
2017-12-17T01:18:55.365Z,101484.17
2017-12-17T01:20:58.435Z,101492.78
2017-12-17T01:23:01.485Z,101498.61
2017-12-17T01:25:04.532Z,101500.46
2017-12-17T01:27:07.548Z,101505.86
2017-12-17T01:29:10.741Z,101513.03
2017-12-17T01:31:13.865Z,101517.59
2017-12-17T01:33:16.944Z,101518.86
2017-12-17T01:35:20.027Z,101520.21
2017-12-17T01:37:23.071Z,101517.52
2017-12-17T01:39:26.086Z,101519.79
2017-12-17T01:41:29.204Z,101519.37
2017-12-17T01:43:32.278Z,101516.58
2017-12-17T01:45:35.299Z,101526.54
2017-12-17T01:47:38.319Z,101522.91
2017-12-17T01:49:41.471Z,101524.27
2017-12-17T01:51:44.508Z,101529.66
2017-12-17T01:53:47.580Z,101526.46
2017-12-17T01:55:50.649Z,101532.28
2017-12-17T01:57:53.820Z,101537.27
2017-12-17T01:59:56.904Z,101540.89
2017-12-17T02:01:59.935Z,101535.56
2017-12-17T02:04:02.962Z,101548.14
2017-12-17T02:06:06.007Z,101543.59
2017-12-17T02:08:09.024Z,101547.22
2017-12-17T02:10:12.052Z,101555.32
2017-12-17T02:12:15.209Z,101558.44
2017-12-17T02:14:18.267Z,101558.44
2017-12-17T02:16:21.343Z,101558.02
2017-12-17T02:18:24.460Z,101567.05
2017-12-17T02:20:27.581Z,101566.55
2017-12-17T02:22:30.732Z,101570.17
2017-12-17T02:24:33.921Z,101567.47
2017-12-17T02:26:36.980Z,101567.90
2017-12-17T02:28:40.133Z,101569.67
2017-12-17T02:30:43.333Z,101566.97
2017-12-17T02:32:46.462Z,101567.90
2017-12-17T02:34:49.477Z,101576.42
2017-12-17T02:36:52.526Z,101581.32
2017-12-17T02:38:55.561Z,101577.77
2017-12-17T02:40:58.718Z,101577.77
2017-12-17T02:43:01.864Z,101576.92
2017-12-17T02:45:04.913Z,101580.55
2017-12-17T02:47:08.036Z,101578.70
2017-12-17T02:49:11.096Z,101585.45
2017-12-17T02:51:14.178Z,101585.87
2017-12-17T02:53:17.275Z,101585.87
2017-12-17T02:55:20.299Z,101585.45
2017-12-17T02:57:23.524Z,101585.45
2017-12-17T02:59:26.516Z,101591.27
2017-12-17T03:01:29.575Z,101593.13
2017-12-17T03:03:32.730Z,101584.09
2017-12-17T03:05:35.744Z,101594.83
2017-12-17T03:07:38.900Z,101586.72
2017-12-17T03:09:42.033Z,101590.34
2017-12-17T03:11:45.059Z,101584.09
2017-12-17T03:13:48.080Z,101588.16
2017-12-17T03:15:51.184Z,101592.63
2017-12-17T03:17:54.367Z,101598.45
2017-12-17T03:19:57.492Z,101600.23
2017-12-17T03:22:00.593Z,101597.61
2017-12-17T03:24:03.626Z,101593.05
2017-12-17T03:26:06.717Z,101595.75
2017-12-17T03:28:09.780Z,101597.52
2017-12-17T03:30:12.871Z,101595.64
2017-12-17T03:32:16.035Z,101598.34
2017-12-17T03:34:19.124Z,101603.43
2017-12-17T03:36:22.186Z,101603.74
2017-12-17T03:38:25.251Z,101605.02
2017-12-17T03:40:28.294Z,101605.09
2017-12-17T03:42:31.320Z,101610.10
2017-12-17T03:44:34.375Z,101607.41
2017-12-17T03:46:37.524Z,101610.19
2017-12-17T03:48:40.673Z,101611.95
2017-12-17T03:50:43.728Z,101616.01
2017-12-17T03:52:46.784Z,101621.83
2017-12-17T03:54:49.946Z,101624.53
2017-12-17T03:56:52.954Z,101621.83
2017-12-17T03:58:56.039Z,101630.36
2017-12-17T04:00:59.149Z,101632.09
2017-12-17T04:03:02.308Z,101644.25
2017-12-17T04:05:05.352Z,101651.11
2017-12-17T04:07:08.456Z,101654.24
2017-12-17T04:09:11.539Z,101654.24
2017-12-17T04:11:14.623Z,101654.24
2017-12-17T04:13:17.710Z,101657.87
2017-12-17T04:15:20.757Z,101658.38
2017-12-17T04:17:24.004Z,101651.62
2017-12-17T04:19:27.064Z,101657.37
2017-12-17T04:21:30.159Z,101656.94
2017-12-17T04:23:33.260Z,101653.81
2017-12-17T04:25:36.317Z,101659.64
2017-12-17T04:27:39.397Z,101662.42
2017-12-17T04:29:42.491Z,101662.84
2017-12-17T04:31:45.579Z,101663.77
2017-12-17T04:33:48.630Z,101656.09
2017-12-17T04:35:51.676Z,101654.24
2017-12-17T04:37:54.804Z,101660.65
2017-12-17T04:39:57.844Z,101664.63
2017-12-17T04:42:00.972Z,101666.05
2017-12-17T04:44:04.018Z,101662.92
2017-12-17T04:46:07.057Z,101670.52
2017-12-17T04:48:10.101Z,101664.70
2017-12-17T04:50:13.231Z,101668.25
2017-12-17T04:52:16.309Z,101663.77
2017-12-17T04:54:19.399Z,101670.52
2017-12-17T04:56:22.396Z,101676.00
2017-12-17T04:58:25.436Z,101676.00
2017-12-17T05:00:28.474Z,101682.25
2017-12-17T05:02:31.738Z,101683.68
2017-12-17T05:04:34.749Z,101688.16
2017-12-17T05:06:37.832Z,101692.20
2017-12-17T05:08:40.890Z,101694.91
2017-12-17T05:10:43.903Z,101697.19
2017-12-17T05:12:47.160Z,101690.44
2017-12-17T05:14:50.212Z,101704.02
2017-12-17T05:16:53.331Z,101699.46
2017-12-17T05:18:56.383Z,101702.66
2017-12-17T05:20:59.408Z,101701.73
2017-12-17T05:23:02.438Z,101702.16
2017-12-17T05:25:05.566Z,101712.97
2017-12-17T05:27:08.593Z,101714.73
2017-12-17T05:29:11.589Z,101714.31
2017-12-17T05:31:14.716Z,101717.52
2017-12-17T05:33:17.723Z,101717.95
2017-12-17T05:35:21.025Z,101712.97
2017-12-17T05:37:24.116Z,101725.20
2017-12-17T05:39:27.186Z,101719.72
2017-12-17T05:41:30.243Z,101725.20
2017-12-17T05:43:33.367Z,101726.05
2017-12-17T05:45:36.394Z,101727.39
2017-12-17T05:47:39.496Z,101732.06
2017-12-17T05:49:42.572Z,101725.30
2017-12-17T05:51:45.642Z,101727.59
2017-12-17T05:53:48.677Z,101729.36
2017-12-17T05:55:51.763Z,101733.83
2017-12-17T05:57:54.789Z,101733.91
2017-12-17T05:59:57.878Z,101732.56
2017-12-17T06:02:00.911Z,101739.31
2017-12-17T06:04:04.014Z,101743.86
2017-12-17T06:06:07.878Z,101755.94
2017-12-17T06:08:10.908Z,101749.69
2017-12-17T06:10:13.984Z,101747.41
2017-12-17T06:12:17.125Z,101751.55
2017-12-17T06:14:20.277Z,101741.16
2017-12-17T06:16:23.299Z,101744.29
2017-12-17T06:18:26.313Z,101740.23
2017-12-17T06:20:29.375Z,101742.52
2017-12-17T06:22:32.413Z,101749.77
2017-12-17T06:24:35.531Z,101746.14
2017-12-17T06:26:38.616Z,101751.55
2017-12-17T06:28:41.636Z,101754.67
2017-12-17T06:30:44.674Z,101748.84
2017-12-17T06:32:47.799Z,101756.02
2017-12-17T06:34:50.941Z,101763.20
2017-12-17T06:36:54.039Z,101763.70
2017-12-17T06:38:57.169Z,101762.34
2017-12-17T06:41:00.173Z,101754.75
2017-12-17T06:43:03.264Z,101766.39
2017-12-17T06:45:06.389Z,101765.47
2017-12-17T06:47:09.492Z,101769.59
2017-12-17T06:49:12.545Z,101774.16
2017-12-17T06:51:15.600Z,101788.50
2017-12-17T06:53:18.624Z,101788.92
2017-12-17T06:55:21.678Z,101788.08
2017-12-17T06:57:24.736Z,101791.20
2017-12-17T06:59:27.854Z,101790.36
2017-12-17T07:01:30.862Z,101788.08
2017-12-17T07:03:33.936Z,101793.05
2017-12-17T07:05:37.220Z,101784.53
2017-12-17T07:07:40.306Z,101790.36
2017-12-17T07:09:43.335Z,101797.64
2017-12-17T07:11:46.422Z,101797.11
2017-12-17T07:13:49.446Z,101802.51
2017-12-17T07:15:52.515Z,101806.13
2017-12-17T07:17:55.679Z,101805.20
2017-12-17T07:19:58.823Z,101808.33
2017-12-17T07:22:01.888Z,101815.09
2017-12-17T07:24:04.961Z,101820.98
2017-12-17T07:26:08.032Z,101828.59
2017-12-17T07:28:11.182Z,101824.11
2017-12-17T07:30:14.252Z,101836.80
2017-12-17T07:32:17.334Z,101838.15
2017-12-17T07:34:20.509Z,101841.17
2017-12-17T07:36:23.594Z,101843.44
2017-12-17T07:38:26.751Z,101846.56
2017-12-17T07:40:29.811Z,101848.84
2017-12-17T07:42:32.952Z,101858.80
2017-12-17T07:44:35.988Z,101856.52
2017-12-17T07:46:39.043Z,101861.50
2017-12-17T07:48:42.201Z,101868.67
2017-12-17T07:50:45.235Z,101878.13
2017-12-17T07:52:48.373Z,101884.45
2017-12-17T07:54:51.508Z,101889.86
2017-12-17T07:56:54.555Z,101892.98
2017-12-17T07:58:57.608Z,101891.20
2017-12-17T08:01:00.812Z,101895.18
2017-12-17T08:03:03.897Z,101899.23
2017-12-17T08:05:06.936Z,101899.30
2017-12-17T08:07:10.007Z,101896.11
2017-12-17T08:09:13.055Z,101901.08
2017-12-17T08:11:16.120Z,101900.27
2017-12-17T08:13:19.172Z,101899.41
2017-12-17T08:15:22.249Z,101906.48
2017-12-17T08:17:25.389Z,101902.01
2017-12-17T08:19:28.406Z,101903.89
2017-12-17T08:21:31.424Z,101912.73
2017-12-17T08:23:34.479Z,101916.05
2017-12-17T08:25:37.622Z,101920.91
2017-12-17T08:27:40.620Z,101922.69
2017-12-17T08:29:43.744Z,101929.55
2017-12-17T08:31:46.761Z,101933.48
2017-12-17T08:33:49.865Z,101936.19
2017-12-17T08:35:53.149Z,101938.47
2017-12-17T08:37:56.192Z,101939.32
2017-12-17T08:39:59.574Z,101937.54
2017-12-17T08:42:02.644Z,101948.77
2017-12-17T08:44:05.664Z,101949.70
2017-12-17T08:46:08.775Z,101955.52
2017-12-17T08:48:11.833Z,101952.82
2017-12-17T08:50:14.856Z,101956.02
2017-12-17T08:52:17.883Z,101958.22
2017-12-17T08:54:20.945Z,101960.00
2017-12-17T08:56:24.136Z,101961.34
2017-12-17T08:58:27.176Z,101962.27
2017-12-17T09:00:30.255Z,101961.34
2017-12-17T09:02:33.353Z,101962.37
2017-12-17T09:04:36.364Z,101964.12
2017-12-17T09:06:39.522Z,101960.42
2017-12-17T09:08:42.564Z,101965.83
2017-12-17T09:10:45.863Z,101963.62
2017-12-17T09:12:48.988Z,101966.33
2017-12-17T09:14:52.032Z,101969.45
2017-12-17T09:16:55.044Z,101974.35
2017-12-17T09:18:58.164Z,101979.75
2017-12-17T09:21:01.315Z,101983.38
2017-12-17T09:23:04.310Z,101982.37
2017-12-17T09:25:07.368Z,101985.58
2017-12-17T09:27:10.448Z,101985.08
2017-12-17T09:29:13.503Z,101988.13
2017-12-17T09:31:16.578Z,101991.33
2017-12-17T09:33:20.132Z,101996.73
2017-12-17T09:35:23.213Z,102002.03
2017-12-17T09:37:26.367Z,102005.16
2017-12-17T09:39:29.443Z,102002.03
2017-12-17T09:41:32.636Z,102003.48
2017-12-17T09:43:35.690Z,102003.06
2017-12-17T09:45:38.855Z,102005.58
2017-12-17T09:47:42.104Z,102016.88
2017-12-17T09:49:45.226Z,102015.46
2017-12-17T09:51:48.337Z,102019.52
2017-12-17T09:53:51.708Z,102017.23
2017-12-17T09:55:54.837Z,102015.88
2017-12-17T09:57:57.932Z,102014.11
2017-12-17T10:00:01.053Z,102017.16
2017-12-17T10:02:04.095Z,102019.02
2017-12-17T10:04:07.222Z,102018.59
2017-12-17T10:06:10.237Z,102013.11
2017-12-17T10:08:13.387Z,102015.81
2017-12-17T10:10:16.471Z,102012.61
2017-12-17T10:12:19.556Z,102009.48
2017-12-17T10:14:22.844Z,102011.69
2017-12-17T10:16:25.852Z,102011.69
2017-12-17T10:18:28.932Z,102014.39
2017-12-17T10:20:32.000Z,102010.41
2017-12-17T10:22:35.035Z,102010.34
2017-12-17T10:24:38.064Z,102010.77
2017-12-17T10:26:41.264Z,102012.11
2017-12-17T10:28:44.296Z,102006.70
2017-12-17T10:30:47.348Z,102012.54
2017-12-17T10:32:50.445Z,102014.70
2017-12-17T10:34:53.476Z,102017.94
2017-12-17T10:36:56.505Z,102008.88
2017-12-17T10:38:59.616Z,102013.36
2017-12-17T10:41:02.705Z,102012.01
2017-12-17T10:43:05.927Z,102014.28
2017-12-17T10:45:09.964Z,102013.78
2017-12-17T10:47:13.072Z,102015.23
2017-12-17T10:49:16.207Z,102019.69
2017-12-17T10:51:19.394Z,102023.73
2017-12-17T10:53:22.439Z,102021.46
2017-12-17T10:55:25.480Z,102025.09
2017-12-17T10:57:28.539Z,102020.53
2017-12-17T10:59:31.728Z,102024.09
2017-12-17T11:01:34.785Z,102025.02
2017-12-17T11:03:37.844Z,102031.34
2017-12-17T11:05:40.888Z,102032.19
2017-12-17T11:07:44.245Z,102031.27
2017-12-17T11:09:47.401Z,102029.14
2017-12-17T11:11:50.491Z,102021.88
2017-12-17T11:13:53.510Z,102020.96
2017-12-17T11:15:56.694Z,102018.26
2017-12-17T11:17:59.757Z,102026.36
2017-12-17T11:20:03.076Z,102019.19
2017-12-17T11:22:06.179Z,102017.41
2017-12-17T11:24:09.194Z,102012.01
2017-12-17T11:26:12.234Z,102016.06
2017-12-17T11:28:15.291Z,102012.93
2017-12-17T11:30:18.408Z,102009.84
2017-12-17T11:32:21.492Z,102006.61
2017-12-17T11:34:24.532Z,102003.09
2017-12-17T11:36:27.609Z,102003.41
2017-12-17T11:38:30.688Z,102008.38
2017-12-17T11:40:33.787Z,102003.41
2017-12-17T11:42:36.914Z,102006.11
2017-12-17T11:44:40.060Z,102003.83
2017-12-17T11:46:43.148Z,102006.61
2017-12-17T11:48:46.211Z,102011.58
2017-12-17T11:50:49.395Z,102010.58
2017-12-17T11:52:52.421Z,102010.58
2017-12-17T11:54:55.485Z,102011.08
2017-12-17T11:56:58.527Z,102015.12
2017-12-17T11:59:01.695Z,102012.43
2017-12-17T12:01:04.778Z,102009.30
2017-12-17T12:03:07.775Z,102005.67
2017-12-17T12:05:10.831Z,102008.38
2017-12-17T12:07:13.870Z,102002.98
2017-12-17T12:09:17.010Z,101998.61
2017-12-17T12:11:20.137Z,102000.77
2017-12-17T12:13:23.253Z,101997.69
2017-12-17T12:15:26.316Z,101998.50
2017-12-17T12:17:29.384Z,101997.69
2017-12-17T12:19:32.491Z,101997.69
2017-12-17T12:21:35.623Z,102003.09
2017-12-17T12:23:38.667Z,102001.05
2017-12-17T12:25:41.736Z,102001.20
2017-12-17T12:27:44.879Z,102004.75
2017-12-17T12:29:48.037Z,101998.85
2017-12-17T12:31:51.060Z,101996.58
2017-12-17T12:33:54.102Z,101993.88
2017-12-17T12:35:57.215Z,101992.95
2017-12-17T12:38:00.234Z,101994.30
2017-12-17T12:40:03.300Z,102008.16
2017-12-17T12:42:06.408Z,101999.63
2017-12-17T12:44:09.423Z,102001.41
2017-12-17T12:46:12.640Z,101996.00
2017-12-17T12:48:15.728Z,102000.48
2017-12-17T12:50:18.766Z,102006.27
2017-12-17T12:52:21.818Z,102008.97
2017-12-17T12:54:24.981Z,102009.83
2017-12-17T12:56:28.152Z,102008.05
2017-12-17T12:58:31.291Z,102007.98
2017-12-17T13:00:34.390Z,102010.17
2017-12-17T13:02:37.569Z,102006.13
2017-12-17T13:04:40.598Z,102015.08
2017-12-17T13:06:43.808Z,102012.38
2017-12-17T13:08:46.824Z,102016.43
2017-12-17T13:10:49.961Z,102013.23
2017-12-17T13:12:53.013Z,102012.30
2017-12-17T13:14:56.061Z,102015.43
2017-12-17T13:16:59.093Z,102014.90
2017-12-17T13:19:02.185Z,102017.17
2017-12-17T13:21:05.210Z,102017.59
2017-12-17T13:23:08.251Z,102022.50
2017-12-17T13:25:11.385Z,102030.11
2017-12-17T13:27:14.433Z,102026.98
2017-12-17T13:29:17.471Z,102030.03
2017-12-17T13:31:20.576Z,102032.31
2017-12-17T13:33:23.627Z,102038.14
2017-12-17T13:35:26.654Z,102037.64
2017-12-17T13:37:29.854Z,102038.48
2017-12-17T13:39:32.882Z,102041.58
2017-12-17T13:41:35.942Z,102037.03
2017-12-17T13:43:38.983Z,102032.12
2017-12-17T13:45:42.012Z,102034.33
2017-12-17T13:47:45.289Z,102034.33
2017-12-17T13:49:48.243Z,102036.53
2017-12-17T13:51:51.347Z,102029.35
2017-12-17T13:53:54.417Z,102030.70
2017-12-17T13:55:57.571Z,102034.25
2017-12-17T13:58:00.649Z,102036.03
2017-12-17T14:00:03.728Z,102037.81
2017-12-17T14:02:06.780Z,102034.18
2017-12-17T14:04:09.868Z,102034.18
2017-12-17T14:06:12.944Z,102030.98
2017-12-17T14:08:15.996Z,102027.85
2017-12-17T14:10:19.021Z,102034.11
2017-12-17T14:12:22.190Z,102032.22
2017-12-17T14:14:25.220Z,102035.78
2017-12-17T14:16:28.244Z,102033.08
2017-12-17T14:18:32.298Z,102044.38
2017-12-17T14:20:35.457Z,102053.34
2017-12-17T14:22:38.500Z,102047.43
2017-12-17T14:24:41.565Z,102056.39
2017-12-17T14:26:44.607Z,102050.98
2017-12-17T14:28:47.700Z,102060.87
2017-12-17T14:30:50.750Z,102063.07
2017-12-17T14:32:53.862Z,102057.98
2017-12-17T14:34:57.043Z,102060.37
2017-12-17T14:37:00.052Z,102058.09
2017-12-17T14:39:06.120Z,102056.63
2017-12-17T14:41:09.208Z,102058.84
2017-12-17T14:43:12.238Z,102058.84
2017-12-17T14:45:15.363Z,102062.89
2017-12-17T14:47:18.431Z,102064.23
2017-12-17T14:49:21.818Z,102070.50
2017-12-17T14:51:24.993Z,102081.30
2017-12-17T14:53:28.023Z,102083.50
2017-12-17T14:55:31.079Z,102082.16
2017-12-17T14:57:34.138Z,102084.86
2017-12-17T14:59:37.157Z,102085.28
2017-12-17T15:01:40.282Z,102088.41
2017-12-17T15:03:43.405Z,102094.23
2017-12-17T15:05:46.521Z,102089.26
2017-12-17T15:07:49.672Z,102089.69
2017-12-17T15:09:52.888Z,102095.52
2017-12-17T15:11:55.910Z,102093.73
2017-12-17T15:13:58.973Z,102094.98
2017-12-17T15:16:02.148Z,102101.23
2017-12-17T15:18:05.200Z,102089.50
2017-12-17T15:20:08.285Z,102087.30
2017-12-17T15:22:11.317Z,102088.08
2017-12-17T15:24:14.339Z,102092.13
2017-12-17T15:26:17.384Z,102097.11
2017-12-17T15:28:20.417Z,102092.13
2017-12-17T15:30:23.436Z,102090.17
2017-12-17T15:32:26.584Z,102085.80
2017-12-17T15:34:29.771Z,102073.14
2017-12-17T15:36:32.828Z,102073.96
2017-12-17T15:38:35.882Z,102069.52
2017-12-17T15:40:39.026Z,102072.61
2017-12-17T15:42:42.024Z,102074.39
2017-12-17T15:44:45.058Z,102077.52
2017-12-17T15:46:48.149Z,102076.59
2017-12-17T15:48:51.186Z,102081.07
2017-12-17T15:50:54.345Z,102072.46
2017-12-17T15:52:57.489Z,102073.81
2017-12-17T15:55:00.646Z,102070.27
2017-12-17T15:57:03.815Z,102063.44
2017-12-17T15:59:06.888Z,102066.63
2017-12-17T16:01:09.890Z,102060.30
2017-12-17T16:03:13.054Z,102054.90
2017-12-17T16:05:16.088Z,102051.77
2017-12-17T16:07:19.227Z,102049.50
2017-12-17T16:09:22.295Z,102045.52
2017-12-17T16:11:25.479Z,102050.00
2017-12-17T16:13:28.571Z,102049.92
2017-12-17T16:15:31.595Z,102049.50
2017-12-17T16:17:34.751Z,102049.92
2017-12-17T16:19:37.837Z,102052.62
2017-12-17T16:21:40.863Z,102053.97
2017-12-17T16:23:43.912Z,102052.62
2017-12-17T16:25:46.952Z,102047.64
2017-12-17T16:27:49.981Z,102041.81
2017-12-17T16:29:53.030Z,102047.22
2017-12-17T16:31:56.140Z,102048.06
2017-12-17T16:33:59.250Z,102047.22
2017-12-17T16:36:02.466Z,102047.72
2017-12-17T16:38:05.599Z,102041.39
2017-12-17T16:40:08.628Z,102047.22
2017-12-17T16:42:11.682Z,102046.30
2017-12-17T16:44:14.763Z,102055.75
2017-12-17T16:46:17.968Z,102047.64
2017-12-17T16:48:21.124Z,102053.05
2017-12-17T16:50:25.334Z,102051.27
2017-12-17T16:52:28.538Z,102050.34
2017-12-17T16:54:31.608Z,102049.50
2017-12-17T16:56:34.685Z,102053.97
2017-12-17T16:58:37.725Z,102049.92
2017-12-17T17:00:41.072Z,102054.90
2017-12-17T17:02:44.129Z,102052.27
2017-12-17T17:04:47.131Z,102054.05
2017-12-17T17:06:50.215Z,102049.56
2017-12-17T17:08:53.241Z,102052.27
2017-12-17T17:10:56.390Z,102055.40
2017-12-17T17:12:59.620Z,102050.92
2017-12-17T17:15:02.780Z,102053.20
2017-12-17T17:17:05.909Z,102046.55
2017-12-17T17:19:08.992Z,102040.30
2017-12-17T17:21:12.014Z,102037.59
2017-12-17T17:23:15.190Z,102037.17
2017-12-17T17:25:18.456Z,102029.48
2017-12-17T17:27:21.564Z,102030.73
2017-12-17T17:29:24.614Z,102031.27
2017-12-17T17:31:27.860Z,102029.48
2017-12-17T17:33:31.032Z,102032.61
2017-12-17T17:35:34.119Z,102028.64
2017-12-17T17:37:37.256Z,102038.52
2017-12-17T17:39:40.280Z,102029.56
2017-12-17T17:41:43.349Z,102029.14
2017-12-17T17:43:46.558Z,102030.91
2017-12-17T17:45:49.559Z,102029.14
2017-12-17T17:47:52.647Z,102023.23
2017-12-17T17:49:55.705Z,102029.06
2017-12-17T17:51:58.834Z,102013.77
2017-12-17T17:54:02.068Z,102013.34
2017-12-17T17:56:05.166Z,102013.42
2017-12-17T17:58:08.200Z,102011.57
2017-12-17T18:00:11.235Z,102016.13
2017-12-17T18:02:14.363Z,102016.13
2017-12-17T18:04:17.402Z,102019.33
2017-12-17T18:06:20.445Z,102015.28
2017-12-17T18:08:23.573Z,102012.58
2017-12-17T18:10:26.659Z,102013.50
2017-12-17T18:12:29.742Z,102009.55
2017-12-17T18:14:32.833Z,102014.03
2017-12-17T18:16:35.917Z,102010.48
2017-12-17T18:18:38.920Z,102009.55
2017-12-17T18:20:42.130Z,102013.18
2017-12-17T18:22:45.220Z,102013.18
2017-12-17T18:24:48.302Z,102015.88
2017-12-17T18:26:51.488Z,102009.63
2017-12-17T18:28:54.545Z,102017.31
2017-12-17T18:30:57.692Z,102018.66
2017-12-17T18:33:00.792Z,102013.26
2017-12-17T18:35:03.793Z,102013.76
2017-12-17T18:37:06.962Z,102007.00
2017-12-17T18:39:10.207Z,102007.92
2017-12-17T18:41:13.283Z,102009.28
2017-12-17T18:43:16.402Z,102000.75
2017-12-17T18:45:19.540Z,102003.02
2017-12-17T18:47:22.635Z,102002.09
2017-12-17T18:49:25.785Z,101998.55
2017-12-17T18:51:28.834Z,101997.62
2017-12-17T18:53:31.900Z,101993.67
2017-12-17T18:55:35.237Z,101996.80
2017-12-17T18:57:38.292Z,101996.80
2017-12-17T18:59:41.384Z,101998.55
2017-12-17T19:01:44.425Z,101983.80
2017-12-17T19:03:47.572Z,101988.27
2017-12-17T19:05:50.584Z,101981.09
2017-12-17T19:07:53.687Z,101974.84
2017-12-17T19:09:56.748Z,101969.86
2017-12-17T19:11:59.812Z,101973.48
2017-12-17T19:14:02.813Z,101964.95
2017-12-17T19:16:05.978Z,101966.73
2017-12-17T19:18:09.003Z,101964.53
2017-12-17T19:20:12.026Z,101960.48
2017-12-17T19:22:15.080Z,101958.63
2017-12-17T19:24:18.118Z,101940.72
2017-12-17T19:26:21.196Z,101954.15
2017-12-17T19:28:24.277Z,101957.35
2017-12-17T19:30:27.364Z,101951.95
2017-12-17T19:32:30.408Z,101947.47
2017-12-17T19:34:33.448Z,101950.59
2017-12-17T19:36:36.514Z,101951.59
2017-12-17T19:38:39.529Z,101951.59
2017-12-17T19:40:42.685Z,101949.83
2017-12-17T19:42:45.803Z,101952.53
2017-12-17T19:44:48.843Z,101946.30
2017-12-17T19:46:51.889Z,101955.76
2017-12-17T19:48:55.023Z,101955.65
2017-12-17T19:50:58.032Z,101941.72
2017-12-17T19:53:01.193Z,101939.98
2017-12-17T19:55:04.193Z,101937.66
2017-12-17T19:57:07.296Z,101929.17
2017-12-17T19:59:10.395Z,101924.69
2017-12-17T20:01:13.425Z,101921.56
2017-12-17T20:03:16.454Z,101915.31
2017-12-17T20:05:19.536Z,101929.24
2017-12-17T20:07:22.562Z,101923.34
2017-12-17T20:09:25.751Z,101923.42
2017-12-17T20:11:28.840Z,101924.77
2017-12-17T20:13:31.935Z,101918.94
2017-12-17T20:15:34.947Z,101916.23
2017-12-17T20:17:37.997Z,101913.53
2017-12-17T20:19:41.191Z,101925.19
2017-12-17T20:21:44.274Z,101910.41
2017-12-17T20:23:47.301Z,101911.76
2017-12-17T20:25:50.358Z,101918.09
2017-12-17T20:27:53.412Z,101913.61
2017-12-17T20:29:56.508Z,101916.73
2017-12-17T20:31:59.525Z,101910.06
2017-12-17T20:34:02.576Z,101903.41
2017-12-17T20:36:05.659Z,101916.39
2017-12-17T20:38:08.716Z,101910.98
2017-12-17T20:40:11.779Z,101902.88
2017-12-17T20:42:14.818Z,101904.23
2017-12-17T20:44:17.920Z,101902.45
2017-12-17T20:46:21.084Z,101901.95
2017-12-17T20:48:24.108Z,101892.08
2017-12-17T20:50:27.256Z,101890.84
2017-12-17T20:52:30.252Z,101881.37
2017-12-17T20:54:33.397Z,101881.37
2017-12-17T20:56:36.484Z,101871.08
2017-12-17T20:58:39.660Z,101874.28
2017-12-17T21:00:42.824Z,101881.03
2017-12-17T21:02:45.870Z,101882.30
2017-12-17T21:04:48.980Z,101879.18
2017-12-17T21:06:52.133Z,101876.98
2017-12-17T21:08:55.226Z,101869.72
2017-12-17T21:10:58.339Z,101867.09
2017-12-17T21:13:01.391Z,101863.05
2017-12-17T21:15:04.574Z,101853.59
2017-12-17T21:17:07.592Z,101854.52
2017-12-17T21:19:10.744Z,101857.22
2017-12-17T21:21:13.772Z,101848.69
2017-12-17T21:23:16.795Z,101848.69
2017-12-17T21:25:19.987Z,101847.77
2017-12-17T21:27:23.083Z,101849.19
2017-12-17T21:29:26.111Z,101844.22
2017-12-17T21:31:29.215Z,101839.66
2017-12-17T21:33:32.274Z,101832.06
2017-12-17T21:35:35.330Z,101829.36
2017-12-17T21:37:38.391Z,101823.95
2017-12-17T21:39:41.459Z,101818.55
2017-12-17T21:41:44.493Z,101818.62
2017-12-17T21:43:47.646Z,101814.19
2017-12-17T21:45:50.692Z,101819.59
2017-12-17T21:47:53.828Z,101817.81
2017-12-17T21:49:56.879Z,101813.66
2017-12-17T21:51:59.995Z,101818.23
2017-12-17T21:54:02.991Z,101809.28
2017-12-17T21:56:06.165Z,101805.66
2017-12-17T21:58:09.169Z,101801.19
2017-12-17T22:00:12.392Z,101802.11
2017-12-17T22:02:15.519Z,101805.23
2017-12-17T22:04:18.515Z,101809.78
2017-12-17T22:06:21.688Z,101802.53
2017-12-17T22:08:24.717Z,101791.73
2017-12-17T22:10:27.861Z,101791.30
2017-12-17T22:12:30.916Z,101798.56
2017-12-17T22:14:34.082Z,101794.51
2017-12-17T22:16:37.116Z,101786.91
2017-12-17T22:18:40.401Z,101790.88
2017-12-17T22:20:43.457Z,101781.50
2017-12-17T22:22:46.481Z,101777.45
2017-12-17T22:24:49.532Z,101783.86
2017-12-17T22:26:52.607Z,101778.80
2017-12-17T22:28:55.722Z,101778.30
2017-12-17T22:30:58.808Z,101780.66
2017-12-17T22:33:02.029Z,101766.64
2017-12-17T22:35:05.053Z,101755.84
2017-12-17T22:37:08.162Z,101745.54
2017-12-17T22:39:11.208Z,101748.66
2017-12-17T22:41:14.256Z,101746.39
2017-12-17T22:43:17.315Z,101753.64
2017-12-17T22:45:20.491Z,101745.97
2017-12-17T22:47:23.511Z,101740.98
2017-12-17T22:49:26.541Z,101736.94
2017-12-17T22:51:29.676Z,101724.86
2017-12-17T22:53:32.775Z,101721.73
2017-12-17T22:55:35.865Z,101719.45
2017-12-17T22:57:38.984Z,101707.30
2017-12-17T22:59:41.989Z,101714.05
2017-12-17T23:01:45.283Z,101701.47
2017-12-17T23:03:48.312Z,101696.50
2017-12-17T23:05:51.426Z,101696.92
2017-12-17T23:07:54.496Z,101691.09
2017-12-17T23:09:57.619Z,101685.27
2017-12-17T23:12:00.669Z,101677.59
2017-12-17T23:14:03.829Z,101671.34
2017-12-17T23:16:06.972Z,101662.42
2017-12-17T23:18:09.968Z,101658.80
2017-12-17T23:20:12.992Z,101656.09
2017-12-17T23:22:16.111Z,101652.05
2017-12-17T23:24:19.143Z,101640.81